createdAt,value
2022-12-16T00:02:10.568Z,29.30
2022-12-16T00:06:11.934Z,27.03
2022-12-16T00:10:13.513Z,24.73
2022-12-16T00:14:14.824Z,29.77
2022-12-16T00:18:17.916Z,21.97
2022-12-16T00:22:19.089Z,21.90
2022-12-16T00:26:20.270Z,24.90
2022-12-16T00:30:21.359Z,21.40
2022-12-16T00:34:22.554Z,26.20
2022-12-16T00:38:26.071Z,25.13
2022-12-16T00:42:27.239Z,27.43
2022-12-16T00:46:28.333Z,23.10
2022-12-16T00:50:29.716Z,22.47
2022-12-16T00:54:31.099Z,20.07
2022-12-16T00:58:32.298Z,21.10
2022-12-16T01:02:33.572Z,24.90
2022-12-16T01:06:34.787Z,24.27
2022-12-16T01:10:35.951Z,24.23
2022-12-16T01:14:37.140Z,20.73
2022-12-16T01:18:38.252Z,21.33
2022-12-16T01:22:39.532Z,20.60
2022-12-16T01:26:40.643Z,20.23
2022-12-16T01:30:41.785Z,21.13
2022-12-16T01:34:47.298Z,22.40
2022-12-16T01:38:47.682Z,20.03
2022-12-16T01:42:48.856Z,21.40
2022-12-16T01:46:59.036Z,23.87
2022-12-16T01:51:16.044Z,21.87
2022-12-16T01:55:24.349Z,23.50
2022-12-16T01:59:27.717Z,19.63
2022-12-16T02:03:33.154Z,20.03
2022-12-16T02:07:34.759Z,18.63
2022-12-16T02:11:45.527Z,19.43
2022-12-16T02:16:24.104Z,22.20
2022-12-16T02:20:29.158Z,22.10
2022-12-16T02:24:52.080Z,23.13
2022-12-16T02:29:15.162Z,18.93
2022-12-16T02:33:38.520Z,20.20
2022-12-16T02:37:46.617Z,18.87
2022-12-16T02:41:57.575Z,22.37
2022-12-16T02:46:00.333Z,17.87
2022-12-16T02:50:02.247Z,22.40
2022-12-16T02:54:05.171Z,20.00
2022-12-16T02:58:34.823Z,20.60
2022-12-16T03:02:45.455Z,18.97
2022-12-16T03:06:49.771Z,19.93
2022-12-16T03:10:57.791Z,21.90
2022-12-16T03:14:59.878Z,19.83
2022-12-16T03:19:04.525Z,20.30
2022-12-16T03:23:09.504Z,19.90
2022-12-16T03:27:23.122Z,19.20
2022-12-16T03:31:37.334Z,21.70
2022-12-16T03:35:48.578Z,19.37
2022-12-16T03:39:53.537Z,19.07
2022-12-16T03:43:55.111Z,22.07
2022-12-16T03:47:58.799Z,23.53
2022-12-16T03:52:00.271Z,18.03
2022-12-16T03:56:01.850Z,19.83
2022-12-16T04:00:04.582Z,22.77
2022-12-16T04:04:06.050Z,19.23
2022-12-16T04:08:07.235Z,18.97
2022-12-16T04:12:27.357Z,23.10
2022-12-16T04:16:47.368Z,18.17
2022-12-16T04:21:10.094Z,19.73
2022-12-16T04:25:23.871Z,17.87
2022-12-16T04:29:25.063Z,15.83
2022-12-16T04:33:44.842Z,14.77
2022-12-16T04:38:04.670Z,16.00
2022-12-16T04:42:25.131Z,14.37
2022-12-16T04:46:45.222Z,17.03
2022-12-16T04:51:05.156Z,13.83
2022-12-16T04:55:25.828Z,17.33
2022-12-16T04:59:45.681Z,15.43
2022-12-16T05:04:05.550Z,14.23
2022-12-16T05:08:25.224Z,16.87
2022-12-16T05:12:44.914Z,15.97
2022-12-16T05:17:04.765Z,16.50
2022-12-16T05:21:24.437Z,17.60
2022-12-16T05:25:44.202Z,20.63
2022-12-16T05:30:04.094Z,21.40
2022-12-16T05:34:23.802Z,19.03
2022-12-16T05:38:43.587Z,21.80
2022-12-16T05:43:06.032Z,25.80
2022-12-16T05:47:26.294Z,15.13
2022-12-16T05:51:46.186Z,18.87
2022-12-16T05:56:06.068Z,18.70
2022-12-16T06:00:27.034Z,16.40
2022-12-16T06:04:46.593Z,17.10
2022-12-16T06:09:06.112Z,19.50
2022-12-16T06:13:25.508Z,18.03
2022-12-16T06:17:45.029Z,17.33
2022-12-16T06:22:04.496Z,19.87
2022-12-16T06:26:24.483Z,15.90
2022-12-16T06:30:44.081Z,16.77
2022-12-16T06:35:03.903Z,19.23
2022-12-16T06:39:23.650Z,19.53
2022-12-16T06:43:43.398Z,21.60
2022-12-16T06:48:03.106Z,16.80
2022-12-16T06:52:22.989Z,17.47
2022-12-16T06:56:42.627Z,17.63
2022-12-16T07:01:02.932Z,14.47
2022-12-16T07:05:23.179Z,13.03
2022-12-16T07:09:42.706Z,23.13
2022-12-16T07:14:02.671Z,15.80
2022-12-16T07:18:22.139Z,19.20
2022-12-16T07:22:41.600Z,18.80
2022-12-16T07:27:01.129Z,19.87
2022-12-16T07:31:20.683Z,15.70
2022-12-16T07:35:23.709Z,27.80
2022-12-16T07:39:43.675Z,19.00
2022-12-16T07:44:03.452Z,19.53
2022-12-16T07:48:23.759Z,17.23
2022-12-16T07:52:43.374Z,19.03
2022-12-16T07:57:02.945Z,19.97
2022-12-16T08:01:22.955Z,18.80
2022-12-16T08:05:42.691Z,16.93
2022-12-16T08:10:03.082Z,17.10
2022-12-16T08:14:26.000Z,18.07
2022-12-16T08:18:45.737Z,19.47
2022-12-16T08:23:05.498Z,15.97
2022-12-16T08:27:25.694Z,19.60
2022-12-16T08:31:45.223Z,22.13
2022-12-16T08:36:05.773Z,21.03
2022-12-16T08:40:35.175Z,21.43
2022-12-16T08:44:47.917Z,21.40
2022-12-16T08:49:07.384Z,18.50
2022-12-16T08:53:27.160Z,15.70
2022-12-16T08:57:46.833Z,18.20
2022-12-16T09:02:06.571Z,16.27
2022-12-16T09:06:26.673Z,19.93
2022-12-16T09:10:46.617Z,14.03
2022-12-16T09:15:06.478Z,19.03
2022-12-16T09:19:26.398Z,17.57
2022-12-16T09:23:46.094Z,15.80
2022-12-16T09:28:04.329Z,15.13
2022-12-16T09:32:24.167Z,14.70
2022-12-16T09:36:30.183Z,16.27
2022-12-16T09:40:51.006Z,16.20
2022-12-16T09:45:17.871Z,13.43
2022-12-16T09:50:05.195Z,20.87
2022-12-16T09:54:28.596Z,14.83
2022-12-16T09:58:54.098Z,14.30
2022-12-16T10:03:17.843Z,13.90
2022-12-16T10:07:38.962Z,14.03
2022-12-16T10:12:08.360Z,14.67
2022-12-16T10:16:53.345Z,15.10
2022-12-16T10:21:15.019Z,14.23
2022-12-16T10:25:44.754Z,19.53
2022-12-16T10:30:04.804Z,13.47
2022-12-16T10:34:31.160Z,12.27
2022-12-16T10:38:55.059Z,12.40
2022-12-16T10:43:22.551Z,19.57
2022-12-16T10:47:42.064Z,14.77
2022-12-16T10:52:06.805Z,14.50
2022-12-16T10:56:52.882Z,14.10
2022-12-16T11:01:13.014Z,12.60
2022-12-16T11:05:53.418Z,11.40
2022-12-16T11:10:13.143Z,11.03
2022-12-16T11:14:36.805Z,12.10
2022-12-16T11:19:00.528Z,12.47
2022-12-16T11:23:40.330Z,11.90
2022-12-16T11:28:00.026Z,11.77
2022-12-16T11:32:23.108Z,13.57
2022-12-16T11:36:45.047Z,14.00
2022-12-16T11:41:05.943Z,14.60
2022-12-16T11:45:31.533Z,13.20
2022-12-16T11:49:51.500Z,12.07
2022-12-16T11:54:20.790Z,13.33
2022-12-16T11:58:48.467Z,12.40
2022-12-16T12:03:26.241Z,16.60
2022-12-16T12:08:04.733Z,14.83
2022-12-16T12:13:03.302Z,12.63
2022-12-16T12:17:32.542Z,15.90
2022-12-16T12:22:05.088Z,13.90
2022-12-16T12:26:26.235Z,19.67
2022-12-16T12:30:49.471Z,14.63
2022-12-16T12:35:16.832Z,20.87
2022-12-16T12:39:45.994Z,19.87
2022-12-16T12:44:15.844Z,17.00
2022-12-16T12:48:51.840Z,13.40
2022-12-16T12:53:32.526Z,15.80
2022-12-16T12:57:58.270Z,13.23
2022-12-16T13:02:22.494Z,15.27
2022-12-16T13:06:43.147Z,15.10
2022-12-16T13:11:02.820Z,17.27
2022-12-16T13:15:25.773Z,17.90
2022-12-16T13:19:52.219Z,15.50
2022-12-16T13:24:11.826Z,15.10
2022-12-16T13:28:40.063Z,19.83
2022-12-16T13:33:03.644Z,18.43
2022-12-16T13:37:31.044Z,16.90
2022-12-16T13:41:53.453Z,20.83
2022-12-16T13:46:20.385Z,14.37
2022-12-16T13:51:00.635Z,16.30
2022-12-16T13:55:30.563Z,15.53
2022-12-16T13:59:50.888Z,14.40
2022-12-16T14:03:57.565Z,15.23
2022-12-16T14:08:17.787Z,15.60
2022-12-16T14:12:44.884Z,16.27
2022-12-16T14:17:11.065Z,16.17
2022-12-16T14:21:32.806Z,14.93
2022-12-16T14:25:52.603Z,12.13
2022-12-16T14:30:13.233Z,13.40
2022-12-16T14:34:42.572Z,12.53
2022-12-16T14:39:12.288Z,12.13
2022-12-16T14:43:35.950Z,12.73
2022-12-16T14:47:57.550Z,13.23
2022-12-16T14:52:17.455Z,15.13
2022-12-16T14:56:40.537Z,15.20
2022-12-16T15:01:00.205Z,15.20
2022-12-16T15:05:28.884Z,17.63
2022-12-16T15:09:56.006Z,15.27
2022-12-16T15:14:18.877Z,16.10
2022-12-16T15:18:48.532Z,17.80
2022-12-16T15:23:13.864Z,15.93
2022-12-16T15:27:40.743Z,21.03
2022-12-16T15:32:06.810Z,15.77
2022-12-16T15:36:33.805Z,12.50
2022-12-16T15:40:57.485Z,19.00
2022-12-16T15:45:17.257Z,14.63
2022-12-16T15:49:50.187Z,20.23
2022-12-16T15:54:20.762Z,19.50
2022-12-16T15:58:47.079Z,20.07
2022-12-16T16:03:09.587Z,18.70
2022-12-16T16:07:39.575Z,20.67
2022-12-16T16:11:59.640Z,19.27
2022-12-16T16:16:21.263Z,17.77
2022-12-16T16:20:41.481Z,18.17
2022-12-16T16:29:29.057Z,19.00
2022-12-16T16:33:48.837Z,16.17
2022-12-16T16:38:08.614Z,17.60
2022-12-16T16:42:28.400Z,20.83
2022-12-16T16:46:54.707Z,14.53
2022-12-16T16:51:15.401Z,19.90
2022-12-16T16:55:41.241Z,20.70
2022-12-16T17:08:52.595Z,19.27
2022-12-16T17:13:13.271Z,26.53
2022-12-16T17:17:34.049Z,26.40
2022-12-16T17:21:53.938Z,21.93
2022-12-16T17:26:13.686Z,22.67
2022-12-16T17:30:38.764Z,22.93
2022-12-16T17:34:58.133Z,28.87
2022-12-16T17:39:10.598Z,21.10
2022-12-16T17:43:30.923Z,23.23
2022-12-16T17:47:51.004Z,22.00
2022-12-16T17:52:10.572Z,19.43
2022-12-16T17:56:30.020Z,19.00
2022-12-16T18:00:49.575Z,19.07
2022-12-16T18:05:09.300Z,17.40
2022-12-16T18:09:29.033Z,17.73
2022-12-16T18:13:48.796Z,18.23
2022-12-16T18:18:08.876Z,22.60
2022-12-16T18:22:28.626Z,21.13
2022-12-16T18:26:48.373Z,22.10
2022-12-16T18:31:08.178Z,22.50
2022-12-16T18:35:28.032Z,20.43
2022-12-16T18:39:47.794Z,18.10
2022-12-16T18:44:08.529Z,18.30
2022-12-16T18:48:28.489Z,18.73
2022-12-16T18:52:48.205Z,18.20
2022-12-16T18:57:07.939Z,17.67
2022-12-16T19:01:29.684Z,20.37
2022-12-16T19:05:49.277Z,18.10
2022-12-16T19:10:09.031Z,19.23
2022-12-16T19:14:21.155Z,21.53
2022-12-16T19:18:41.383Z,18.17
2022-12-16T19:23:01.134Z,22.97
2022-12-16T19:27:20.943Z,19.33
2022-12-16T19:31:40.865Z,24.40
2022-12-16T19:36:02.062Z,18.27
2022-12-16T19:40:22.140Z,18.03
2022-12-16T19:44:42.054Z,19.63
2022-12-16T19:49:01.757Z,21.17
2022-12-16T19:53:21.346Z,24.53
2022-12-16T19:57:40.895Z,23.73
2022-12-16T20:02:00.479Z,23.27
2022-12-16T20:06:22.222Z,21.87
2022-12-16T20:10:41.668Z,20.80
2022-12-16T20:15:02.596Z,18.20
2022-12-16T20:19:22.350Z,21.50
2022-12-16T20:23:41.862Z,21.53
2022-12-16T20:28:01.566Z,24.13
2022-12-16T20:32:21.881Z,24.70
2022-12-16T20:36:41.653Z,28.00
2022-12-16T20:41:01.217Z,23.57
2022-12-16T20:45:21.418Z,23.53
2022-12-16T20:49:41.390Z,20.47
2022-12-16T20:54:00.933Z,23.37
2022-12-16T20:58:21.553Z,24.87
2022-12-16T21:02:41.183Z,24.47
2022-12-16T21:07:00.904Z,23.57
2022-12-16T21:11:20.598Z,21.47
2022-12-16T21:15:40.266Z,21.37
2022-12-16T21:20:00.045Z,20.67
2022-12-16T21:24:19.690Z,19.40
2022-12-16T21:28:39.415Z,21.27
2022-12-16T21:32:59.249Z,23.93
2022-12-16T21:37:18.761Z,19.63
2022-12-16T21:41:38.576Z,20.00
2022-12-16T21:45:58.219Z,21.50
2022-12-16T21:50:17.819Z,26.27
2022-12-16T21:54:37.634Z,25.83
2022-12-16T21:58:57.347Z,25.53
2022-12-16T22:03:17.036Z,34.50
2022-12-16T22:07:36.796Z,32.70
2022-12-16T22:11:56.564Z,24.07
2022-12-16T22:16:17.673Z,26.27
2022-12-16T22:20:37.133Z,24.17
2022-12-16T22:24:56.752Z,25.37
2022-12-16T22:29:16.386Z,26.27
2022-12-16T22:33:37.352Z,24.30
2022-12-16T22:37:57.020Z,23.20
2022-12-16T22:42:16.598Z,25.27
2022-12-16T22:46:36.339Z,22.40
2022-12-16T22:50:56.440Z,25.30
2022-12-16T22:55:16.113Z,23.50
2022-12-16T22:59:35.836Z,21.97
2022-12-16T23:03:56.446Z,20.53
2022-12-16T23:08:16.002Z,19.20
2022-12-16T23:12:35.532Z,20.30
2022-12-16T23:16:55.033Z,20.80
2022-12-16T23:21:15.968Z,23.80
2022-12-16T23:25:35.949Z,19.70
2022-12-16T23:34:16.702Z,20.77
2022-12-16T23:38:36.177Z,20.97
2022-12-16T23:42:56.224Z,22.37
2022-12-16T23:47:15.967Z,22.07
2022-12-16T23:51:35.970Z,22.90
2022-12-16T23:55:55.744Z,29.20
